Time;durP1;ratioP1;P1;durP2;ratioP2;P2;SDS_P1;SDS_P2;PMS_P1;PMS_P2;Temp;Humidity;BMP_temperature;BMP_pressure;BME280_temperature;BME280_humidity;BME280_pressure;Samples;Min_cycle;Max_cycle;Signal;HPM_P1;HPM_P2
2021/12/04 00:02:24;;;;;;;;;;;-0.10;99.90;;;;;;5012411;28;19975;-77
2021/12/04 00:04:52;;;;;;;;;;;-0.20;99.90;;;;;;5013544;28;19913;-76
2021/12/04 00:07:18;;;;;;;;;;;-0.10;99.90;;;;;;5011819;28;19914;-76
2021/12/04 00:09:46;;;;;;;;;;;-0.10;99.90;;;;;;5012925;28;19956;-76
2021/12/04 00:12:12;;;;;;;;;;;-0.10;99.90;;;;;;5013839;28;19913;-76
2021/12/04 00:14:38;;;;;;;;;;;-0.10;99.90;;;;;;5029454;28;19921;-76
2021/12/04 00:17:04;;;;;;;;;;;-0.10;99.90;;;;;;5018428;28;20012;-76
2021/12/04 00:19:30;;;;;;;;;;;-0.10;99.90;;;;;;5033600;28;19940;-77
2021/12/04 00:21:56;;;;;;;;;;;-0.10;99.90;;;;;;5022265;28;19921;-76
2021/12/04 00:24:22;;;;;;;;;;;0.00;99.90;;;;;;5015269;28;19913;-76
2021/12/04 00:26:48;;;;;;;;;;;0.00;99.90;;;;;;5021002;28;19941;-77
2021/12/04 00:29:14;;;;;;;;;;;0.00;99.90;;;;;;5028998;28;19909;-77
2021/12/04 00:31:47;;;;;;;;;;;-0.10;99.90;;;;;;5013337;28;19909;-77
2021/12/04 00:34:13;;;;;;;;;;;-0.20;99.90;;;;;;5012406;28;19913;-76
2021/12/04 00:50:14;;;;;;;;;;;-0.30;99.90;;;;;;5007314;28;19913;-77
2021/12/04 00:52:40;;;;;;;;;;;-0.30;99.90;;;;;;5010870;28;19939;-76
2021/12/04 00:55:06;;;;;;;;;;;-0.30;99.90;;;;;;5013566;28;19909;-76
2021/12/04 00:57:32;;;;;;;;;;;-0.30;99.90;;;;;;5014976;28;19913;-76
2021/12/04 00:59:57;;;;;;;;;;;-0.20;99.90;;;;;;5027182;28;20031;-77
2021/12/04 01:02:23;;;;;;;;;;;-0.20;99.90;;;;;;5011199;28;19909;-76
2021/12/04 01:04:49;;;;;;;;;;;-0.20;99.90;;;;;;5017613;28;19983;-76
2021/12/04 01:07:15;;;;;;;;;;;-0.20;99.90;;;;;;5011700;28;20402;-77
2021/12/04 01:09:41;;;;;;;;;;;-0.20;99.90;;;;;;5015603;28;19909;-77
2021/12/04 01:12:07;;;;;;;;;;;-0.20;99.90;;;;;;5012175;28;19956;-77
2021/12/04 01:14:32;;;;;;;;;;;-0.20;99.90;;;;;;5017528;28;19956;-77
2021/12/04 01:16:58;;;;;;;;;;;-0.20;99.90;;;;;;5026834;28;20261;-77
2021/12/04 01:19:25;;;;;;;;;;;-0.20;99.90;;;;;;5017191;28;19920;-77
2021/12/04 01:21:52;;;;;;;;;;;-0.20;99.90;;;;;;5011383;28;19974;-77
2021/12/04 01:24:17;;;;;;;;;;;-0.20;99.90;;;;;;5021074;28;19908;-76
2021/12/04 01:26:43;;;;;;;;;;;-0.10;99.90;;;;;;5011606;28;19913;-77
2021/12/04 01:29:08;;;;;;;;;;;-0.10;99.90;;;;;;5011682;28;19966;-77
2021/12/04 01:31:34;;;;;;;;;;;-0.10;99.90;;;;;;5015009;28;19933;-77
2021/12/04 01:34:00;;;;;;;;;;;-0.10;99.90;;;;;;5011332;28;20291;-76
2021/12/04 01:36:25;;;;;;;;;;;-0.10;99.90;;;;;;5028500;28;19921;-77
2021/12/04 01:38:51;;;;;;;;;;;-0.10;99.90;;;;;;5025986;28;19909;-76
2021/12/04 01:41:17;;;;;;;;;;;0.00;99.90;;;;;;5011986;28;19913;-76
2021/12/04 01:43:42;;;;;;;;;;;0.00;99.90;;;;;;5015303;28;20265;-77
2021/12/04 01:46:08;;;;;;;;;;;0.00;99.90;;;;;;5020590;28;19949;-76
2021/12/04 01:48:34;;;;;;;;;;;0.00;99.90;;;;;;5011350;28;19963;-76
2021/12/04 01:50:59;;;;;;;;;;;0.00;99.90;;;;;;5015919;28;19913;-77
2021/12/04 01:53:25;;;;;;;;;;;0.00;99.90;;;;;;5011467;28;19956;-76
2021/12/04 01:55:51;;;;;;;;;;;-0.10;99.90;;;;;;5027820;28;20268;-76
2021/12/04 01:58:17;;;;;;;;;;;-0.10;99.90;;;;;;5019102;28;19920;-76
2021/12/04 02:00:43;;;;;;;;;;;-0.10;99.90;;;;;;5023998;28;19913;-76
2021/12/04 02:03:12;;;;;;;;;;;-0.10;99.90;;;;;;5015166;28;19921;-77
2021/12/04 02:05:38;;;;;;;;;;;-0.10;99.90;;;;;;5019581;28;19917;-77
2021/12/04 02:08:07;;;;;;;;;;;-0.10;99.90;;;;;;5011649;28;19924;-76
2021/12/04 02:10:33;;;;;;;;;;;0.00;99.90;;;;;;5015268;28;19917;-76
2021/12/04 02:12:58;;;;;;;;;;;0.00;99.90;;;;;;5014566;28;19963;-76
2021/12/04 02:15:24;;;;;;;;;;;0.00;99.90;;;;;;5010895;28;19911;-77
2021/12/04 02:17:50;;;;;;;;;;;0.00;99.90;;;;;;5010992;28;19917;-77
2021/12/04 02:20:17;;;;;;;;;;;-0.10;99.90;;;;;;5012222;28;19917;-76
2021/12/04 02:22:43;;;;;;;;;;;-0.10;99.90;;;;;;5011800;28;19919;-77
2021/12/04 02:25:09;;;;;;;;;;;-0.20;99.90;;;;;;5012328;28;20000;-76
2021/12/04 02:27:38;;;;;;;;;;;-0.20;99.90;;;;;;5016001;28;19931;-76
2021/12/04 02:30:06;;;;;;;;;;;-0.20;99.90;;;;;;5010528;28;20372;-77
2021/12/04 02:32:32;;;;;;;;;;;-0.20;99.90;;;;;;5015948;28;20394;-77
2021/12/04 02:34:58;;;;;;;;;;;-0.20;99.90;;;;;;5022030;28;19909;-77
2021/12/04 02:37:23;;;;;;;;;;;-0.20;99.90;;;;;;5010614;28;19918;-76
2021/12/04 02:39:57;;;;;;;;;;;-0.20;99.90;;;;;;5010841;28;20391;-76
2021/12/04 02:42:24;;;;;;;;;;;-0.20;99.90;;;;;;5010114;28;19917;-76
2021/12/04 02:44:49;;;;;;;;;;;-0.20;99.90;;;;;;5016998;28;19920;-77
2021/12/04 02:47:15;;;;;;;;;;;-0.30;99.90;;;;;;5012202;28;19913;-77
2021/12/04 02:49:41;;;;;;;;;;;-0.30;99.90;;;;;;5015423;28;20371;-77
2021/12/04 02:52:08;;;;;;;;;;;-0.30;99.90;;;;;;5014543;28;19909;-77
2021/12/04 02:54:34;;;;;;;;;;;-0.30;99.90;;;;;;5011294;28;19920;-76
2021/12/04 02:57:00;;;;;;;;;;;-0.30;99.90;;;;;;5013221;28;19956;-76
2021/12/04 02:59:26;;;;;;;;;;;-0.30;99.90;;;;;;5010834;28;19952;-76
2021/12/04 03:01:56;;;;;;;;;;;-0.30;99.90;;;;;;5015668;28;19920;-77
2021/12/04 03:04:23;;;;;;;;;;;-0.40;99.90;;;;;;5009669;28;19913;-77
2021/12/04 03:06:50;;;;;;;;;;;-0.40;99.90;;;;;;5016590;28;19913;-76
2021/12/04 03:09:16;;;;;;;;;;;-0.40;99.90;;;;;;5016361;28;19945;-76
2021/12/04 03:11:41;;;;;;;;;;;-0.40;99.90;;;;;;5002631;28;19941;-76
2021/12/04 03:14:08;;;;;;;;;;;-0.40;99.90;;;;;;5010737;28;20059;-76
2021/12/04 03:16:34;;;;;;;;;;;-0.40;99.90;;;;;;5031759;28;19941;-76
2021/12/04 03:19:00;;;;;;;;;;;-0.30;99.90;;;;;;5010539;28;20358;-76
2021/12/04 03:21:26;;;;;;;;;;;-0.30;99.90;;;;;;5011530;28;19953;-76
2021/12/04 03:24:01;;;;;;;;;;;-0.30;99.90;;;;;;5010985;28;19920;-76
2021/12/04 03:26:27;;;;;;;;;;;-0.30;99.90;;;;;;5008706;28;20287;-76
2021/12/04 03:28:54;;;;;;;;;;;-0.40;99.90;;;;;;5008660;28;19909;-76
2021/12/04 03:42:25;;;;;;;;;;;-0.40;99.90;;;;;;4950910;28;19910;-76
2021/12/04 03:44:50;;;;;;;;;;;-0.40;99.90;;;;;;4987548;28;19916;-76
2021/12/04 03:47:17;;;;;;;;;;;-0.40;99.90;;;;;;5009712;28;19916;-76
2021/12/04 03:49:42;;;;;;;;;;;-0.50;99.90;;;;;;5014725;28;20311;-76
2021/12/04 03:52:08;;;;;;;;;;;-0.50;99.90;;;;;;5034132;28;20000;-76
2021/12/04 03:54:34;;;;;;;;;;;-0.50;99.90;;;;;;5034753;28;19909;-76
2021/12/04 03:57:03;;;;;;;;;;;-0.50;99.90;;;;;;5022573;28;19945;-76
2021/12/04 03:59:30;;;;;;;;;;;-0.50;99.90;;;;;;5036695;28;19967;-76
2021/12/04 04:01:55;;;;;;;;;;;-0.50;99.90;;;;;;5029127;28;19960;-76
2021/12/04 04:04:21;;;;;;;;;;;-0.50;99.90;;;;;;5012282;28;19917;-76
2021/12/04 04:06:46;;;;;;;;;;;-0.50;99.90;;;;;;4992348;28;19948;-76
2021/12/04 04:09:12;;;;;;;;;;;-0.50;99.90;;;;;;5019368;28;19910;-76
2021/12/04 04:11:38;;;;;;;;;;;-0.50;99.90;;;;;;5022502;28;19913;-76
2021/12/04 04:14:04;;;;;;;;;;;-0.50;99.90;;;;;;5015683;28;19971;-76
2021/12/04 04:16:30;;;;;;;;;;;-0.50;99.90;;;;;;5011103;28;20019;-76
2021/12/04 04:18:55;;;;;;;;;;;-0.50;99.90;;;;;;5012688;28;20007;-76
2021/12/04 04:21:21;;;;;;;;;;;-0.50;99.90;;;;;;5012571;28;20008;-76
2021/12/04 04:23:46;;;;;;;;;;;-0.50;99.90;;;;;;5040616;28;20327;-76
2021/12/04 04:26:12;;;;;;;;;;;-0.50;99.90;;;;;;5012216;28;19968;-76
2021/12/04 04:28:38;;;;;;;;;;;-0.50;99.90;;;;;;5029858;28;19909;-76
2021/12/04 04:31:04;;;;;;;;;;;-0.50;99.90;;;;;;5015176;28;19970;-76
2021/12/04 04:33:35;;;;;;;;;;;-0.50;99.90;;;;;;5009434;28;19914;-76
2021/12/04 04:36:45;;;;;;;;;;;-0.40;99.90;;;;;;5012282;28;19909;-76
2021/12/04 04:58:03;;;;;;;;;;;-0.40;99.90;;;;;;5014625;28;19935;-76
2021/12/04 05:00:55;;;;;;;;;;;-0.40;99.90;;;;;;5025637;28;20033;-76
2021/12/04 05:11:39;;;;;;;;;;;-0.30;99.90;;;;;;5012265;28;20018;-76
2021/12/04 05:14:06;;;;;;;;;;;-0.30;99.90;;;;;;5014197;28;19921;-76
2021/12/04 05:16:42;;;;;;;;;;;-0.30;99.90;;;;;;5035037;28;20545;-76
2021/12/04 05:19:24;;;;;;;;;;;-0.30;99.90;;;;;;5021435;28;20012;-76
2021/12/04 05:21:50;;;;;;;;;;;-0.30;99.90;;;;;;5007776;28;19910;-76
2021/12/04 05:24:16;;;;;;;;;;;-0.30;99.90;;;;;;5004689;28;20030;-76
2021/12/04 05:26:41;;;;;;;;;;;-0.40;99.90;;;;;;5028695;28;19949;-76
2021/12/04 05:29:07;;;;;;;;;;;-0.30;99.90;;;;;;5008554;28;19909;-76
2021/12/04 05:31:33;;;;;;;;;;;-0.30;99.90;;;;;;5011983;28;19920;-76
2021/12/04 05:33:58;;;;;;;;;;;-0.40;99.90;;;;;;4995727;28;20020;-76
2021/12/04 05:36:24;;;;;;;;;;;-0.40;99.90;;;;;;5016881;28;19916;-77
2021/12/04 05:38:49;;;;;;;;;;;-0.40;99.90;;;;;;5025693;28;19917;-75
2021/12/04 05:41:16;;;;;;;;;;;-0.40;99.90;;;;;;5025049;28;19920;-77
2021/12/04 05:43:42;;;;;;;;;;;-0.40;99.90;;;;;;5020814;28;20410;-77
2021/12/04 05:52:22;;;;;;;;;;;-0.40;99.90;;;;;;4985366;28;19920;-78
2021/12/04 05:56:46;;;;;;;;;;;-0.40;99.90;;;;;;5021810;28;20360;-78
2021/12/04 05:59:12;;;;;;;;;;;-0.40;99.90;;;;;;5019033;28;19924;-78
2021/12/04 06:01:37;;;;;;;;;;;-0.40;99.90;;;;;;5024753;28;19985;-75
2021/12/04 06:04:03;;;;;;;;;;;-0.40;99.90;;;;;;5030512;22;20322;-84
2021/12/04 06:06:29;;;;;;;;;;;-0.30;99.90;;;;;;4961174;28;19913;-84
2021/12/04 06:08:54;;;;;;;;;;;-0.40;99.90;;;;;;4993320;28;19916;-83
2021/12/04 06:11:20;;;;;;;;;;;-0.40;99.90;;;;;;4979130;28;19913;-85
2021/12/04 06:13:46;;;;;;;;;;;-0.40;99.90;;;;;;4961082;28;19961;-84
2021/12/04 06:16:12;;;;;;;;;;;-0.40;99.90;;;;;;4992284;28;19960;-84
2021/12/04 06:18:38;;;;;;;;;;;-0.40;99.90;;;;;;4993521;28;19914;-84
2021/12/04 06:23:48;;;;;;;;;;;-0.40;99.90;;;;;;4991857;28;20436;-84
2021/12/04 06:26:14;;;;;;;;;;;-0.40;99.90;;;;;;4976974;28;19910;-83
2021/12/04 06:28:39;;;;;;;;;;;-0.40;99.90;;;;;;4957801;28;19924;-85
2021/12/04 06:31:07;;;;;;;;;;;-0.40;99.90;;;;;;4976657;28;19917;-84
2021/12/04 06:33:33;;;;;;;;;;;-0.40;99.90;;;;;;4988822;28;19972;-85
2021/12/04 06:36:00;;;;;;;;;;;-0.40;99.90;;;;;;4965362;28;19918;-85
2021/12/04 06:38:25;;;;;;;;;;;-0.40;99.90;;;;;;4987370;28;19909;-84
2021/12/04 06:40:51;;;;;;;;;;;-0.40;99.90;;;;;;4991166;28;19921;-84
2021/12/04 06:43:17;;;;;;;;;;;-0.40;99.90;;;;;;4977357;28;19910;-85
2021/12/04 06:45:44;;;;;;;;;;;-0.40;99.90;;;;;;4976256;28;20375;-84
2021/12/04 06:48:22;;;;;;;;;;;-0.40;99.90;;;;;;4975081;28;20363;-85
2021/12/04 06:50:55;;;;;;;;;;;-0.40;99.90;;;;;;4993149;28;19996;-85
2021/12/04 06:55:49;;;;;;;;;;;-0.40;99.90;;;;;;4974448;28;19913;-85
2021/12/04 06:58:16;;;;;;;;;;;-0.40;99.90;;;;;;4955680;28;19917;-84
2021/12/04 07:00:41;;;;;;;;;;;-0.40;99.90;;;;;;4993306;28;19920;-85
2021/12/04 07:03:07;;;;;;;;;;;-0.40;99.90;;;;;;4992975;28;19909;-85
2021/12/04 07:05:33;;;;;;;;;;;-0.40;99.90;;;;;;4983063;28;19924;-85
2021/12/04 07:07:59;;;;;;;;;;;-0.40;99.90;;;;;;4974477;28;20375;-85
2021/12/04 07:10:24;;;;;;;;;;;-0.40;99.90;;;;;;4977829;28;19957;-84
2021/12/04 07:12:50;;;;;;;;;;;-0.30;99.90;;;;;;4976457;28;19917;-85
2021/12/04 07:15:16;;;;;;;;;;;-0.30;99.90;;;;;;4980625;28;19924;-83
2021/12/04 07:17:41;;;;;;;;;;;-0.30;99.90;;;;;;4975368;28;19918;-86
2021/12/04 07:20:07;;;;;;;;;;;-0.40;99.90;;;;;;4977354;28;19964;-85
2021/12/04 07:22:33;;;;;;;;;;;-0.40;99.90;;;;;;4976807;28;19963;-84
2021/12/04 07:24:59;;;;;;;;;;;-0.40;99.90;;;;;;4980439;28;19910;-83
2021/12/04 07:27:25;;;;;;;;;;;-0.40;99.90;;;;;;4965168;28;20317;-85
2021/12/04 07:29:50;;;;;;;;;;;-0.40;99.90;;;;;;4978959;28;19924;-85
2021/12/04 07:32:16;;;;;;;;;;;-0.40;99.90;;;;;;4973354;28;20401;-85
2021/12/04 07:34:42;;;;;;;;;;;-0.30;99.90;;;;;;4986915;28;19920;-86
2021/12/04 07:37:07;;;;;;;;;;;-0.30;99.90;;;;;;4992745;28;20394;-85
2021/12/04 07:39:33;;;;;;;;;;;-0.30;99.90;;;;;;4983088;28;19916;-85
2021/12/04 07:41:59;;;;;;;;;;;-0.30;99.90;;;;;;4982568;28;19939;-84
2021/12/04 07:44:25;;;;;;;;;;;-0.30;99.90;;;;;;4980519;28;19913;-85
2021/12/04 07:46:50;;;;;;;;;;;-0.20;99.90;;;;;;4979950;28;20048;-85
2021/12/04 07:49:16;;;;;;;;;;;-0.30;99.90;;;;;;4962689;28;20036;-85
2021/12/04 07:51:43;;;;;;;;;;;-0.30;99.90;;;;;;4976728;28;19964;-83
2021/12/04 07:54:09;;;;;;;;;;;-0.20;99.90;;;;;;5007946;28;19909;-85
2021/12/04 07:56:35;;;;;;;;;;;-0.20;99.90;;;;;;4995826;28;19921;-86
2021/12/04 07:59:01;;;;;;;;;;;-0.10;99.90;;;;;;4964392;28;19913;-85
2021/12/04 08:01:26;;;;;;;;;;;-0.10;99.90;;;;;;4979603;28;19917;-85
2021/12/04 08:03:52;;;;;;;;;;;-0.10;99.90;;;;;;4979291;28;19914;-83
2021/12/04 08:06:18;;;;;;;;;;;-0.10;99.90;;;;;;4979110;28;19914;-85
2021/12/04 08:08:43;;;;;;;;;;;-0.10;99.90;;;;;;4981567;28;19913;-85
2021/12/04 08:11:09;;;;;;;;;;;-0.10;99.90;;;;;;4990072;28;19916;-85
2021/12/04 08:13:35;;;;;;;;;;;-0.10;99.90;;;;;;4979501;28;19946;-85
2021/12/04 08:16:00;;;;;;;;;;;-0.10;99.90;;;;;;4961940;28;20387;-85
2021/12/04 08:18:26;;;;;;;;;;;-0.10;99.90;;;;;;4963398;28;20539;-85
2021/12/04 08:20:52;;;;;;;;;;;0.00;99.90;;;;;;4979404;28;19913;-84
2021/12/04 08:23:17;;;;;;;;;;;0.10;99.90;;;;;;4966884;28;20008;-85
2021/12/04 08:25:44;;;;;;;;;;;0.10;99.90;;;;;;4993511;28;19910;-85
2021/12/04 08:28:10;;;;;;;;;;;0.20;99.90;;;;;;4974878;28;20271;-83
2021/12/04 08:30:40;;;;;;;;;;;0.20;99.90;;;;;;4993347;28;19910;-84
2021/12/04 08:33:05;;;;;;;;;;;0.30;99.90;;;;;;4993418;28;20025;-85
2021/12/04 08:35:35;;;;;;;;;;;0.30;99.90;;;;;;4973807;28;20316;-83
2021/12/04 08:38:01;;;;;;;;;;;0.40;99.90;;;;;;4991676;28;19924;-85
2021/12/04 08:40:28;;;;;;;;;;;0.40;99.90;;;;;;4979024;28;19910;-85
2021/12/04 08:42:55;;;;;;;;;;;0.50;99.90;;;;;;4994429;28;19909;-85
2021/12/04 08:45:21;;;;;;;;;;;0.50;99.90;;;;;;4993098;28;19932;-86
2021/12/04 08:47:47;;;;;;;;;;;0.50;99.90;;;;;;4996196;28;20008;-86
2021/12/04 08:50:17;;;;;;;;;;;0.50;99.90;;;;;;4994513;28;20239;-85
2021/12/04 08:52:44;;;;;;;;;;;0.40;99.90;;;;;;4979475;28;19914;-84
2021/12/04 08:55:10;;;;;;;;;;;0.40;99.90;;;;;;5011768;28;20003;-85
2021/12/04 08:57:35;;;;;;;;;;;0.40;99.90;;;;;;4992726;28;19920;-85
2021/12/04 09:00:03;;;;;;;;;;;0.40;99.90;;;;;;4962273;28;19921;-84
2021/12/04 09:02:28;;;;;;;;;;;0.40;99.90;;;;;;4976299;28;19910;-85
2021/12/04 09:04:56;;;;;;;;;;;0.30;99.90;;;;;;4982231;28;19940;-84
2021/12/04 09:07:22;;;;;;;;;;;0.30;99.90;;;;;;4978577;28;19957;-85
2021/12/04 09:09:54;;;;;;;;;;;0.40;99.90;;;;;;5013713;28;19916;-84
2021/12/04 09:12:20;;;;;;;;;;;0.30;99.90;;;;;;4996873;28;19909;-84
2021/12/04 09:14:46;;;;;;;;;;;0.40;99.90;;;;;;4998255;28;19909;-85
2021/12/04 09:17:13;;;;;;;;;;;0.40;99.90;;;;;;4961103;28;20401;-84
2021/12/04 09:19:38;;;;;;;;;;;0.40;99.90;;;;;;4958098;28;19957;-85
2021/12/04 09:22:06;;;;;;;;;;;0.40;99.90;;;;;;4980405;28;19916;-85
2021/12/04 09:24:40;;;;;;;;;;;0.40;99.90;;;;;;4987358;28;19913;-85
2021/12/04 10:34:36;;;;;;;;;;;1.00;99.90;;;;;;5005519;28;20438;-84
2021/12/04 10:37:05;;;;;;;;;;;1.00;99.90;;;;;;4991614;28;19913;-85
2021/12/04 10:39:30;;;;;;;;;;;1.00;99.90;;;;;;4987943;28;19952;-85
2021/12/04 10:41:56;;;;;;;;;;;1.10;99.90;;;;;;4987878;28;19940;-85
2021/12/04 10:44:25;;;;;;;;;;;1.10;99.90;;;;;;4956238;28;19917;-84
2021/12/04 10:46:56;;;;;;;;;;;1.10;99.90;;;;;;4991250;28;19964;-84
2021/12/04 10:49:44;;;;;;;;;;;1.10;99.90;;;;;;4993221;28;19917;-85
2021/12/04 10:52:44;;;;;;;;;;;1.20;99.90;;;;;;4993520;28;19909;-84
2021/12/04 10:55:18;;;;;;;;;;;1.20;99.90;;;;;;4993243;28;19921;-85
2021/12/04 10:58:22;;;;;;;;;;;1.20;99.90;;;;;;4973863;28;19997;-85
2021/12/04 11:03:50;;;;;;;;;;;1.10;99.90;;;;;;5011656;28;19916;-84
2021/12/04 11:20:31;;;;;;;;;;;1.20;99.90;;;;;;5010901;28;19921;-85
2021/12/04 11:23:13;;;;;;;;;;;1.20;99.90;;;;;;4996828;28;20507;-86
2021/12/04 11:28:28;;;;;;;;;;;1.20;99.90;;;;;;4990149;28;19909;-89
2021/12/04 11:41:36;;;;;;;;;;;1.20;99.90;;;;;;4982277;28;20391;-87
2021/12/04 11:44:10;;;;;;;;;;;1.20;99.90;;;;;;4979118;28;20012;-91
2021/12/04 11:46:42;;;;;;;;;;;1.20;99.90;;;;;;4986861;28;19910;-87
2021/12/04 11:49:11;;;;;;;;;;;1.30;99.90;;;;;;5000390;28;19914;-86
2021/12/04 11:51:44;;;;;;;;;;;1.20;99.90;;;;;;4987682;28;19909;-86
2021/12/04 11:54:11;;;;;;;;;;;1.20;99.90;;;;;;4979152;28;19932;-86
2021/12/04 11:56:36;;;;;;;;;;;1.20;99.90;;;;;;4996408;28;19977;-85
2021/12/04 11:59:02;;;;;;;;;;;1.20;99.90;;;;;;4982305;28;20068;-87
2021/12/04 12:01:31;;;;;;;;;;;1.30;99.90;;;;;;4986941;28;20047;-87
2021/12/04 12:03:59;;;;;;;;;;;1.30;99.90;;;;;;4984463;28;20022;-85
2021/12/04 12:06:32;;;;;;;;;;;1.30;99.90;;;;;;4978923;28;19995;-85
2021/12/04 12:09:19;;;;;;;;;;;1.20;99.90;;;;;;5002714;28;19909;-86
2021/12/04 12:11:56;;;;;;;;;;;1.20;99.90;;;;;;4980343;28;20010;-87
2021/12/04 12:14:23;;;;;;;;;;;1.20;99.90;;;;;;4979176;28;20176;-85
2021/12/04 12:16:52;;;;;;;;;;;1.20;99.90;;;;;;4995681;28;19917;-86
2021/12/04 12:19:28;;;;;;;;;;;1.20;99.90;;;;;;4980113;28;20489;-88
2021/12/04 12:36:03;;;;;;;;;;;1.30;99.90;;;;;;4950740;28;19945;-88
2021/12/04 12:38:49;;;;;;;;;;;1.30;99.90;;;;;;5011637;28;19913;-86
2021/12/04 12:41:31;;;;;;;;;;;1.30;99.90;;;;;;4988789;28;19917;-86
2021/12/04 12:43:57;;;;;;;;;;;1.30;99.90;;;;;;4999046;28;19920;-87
2021/12/04 12:46:36;;;;;;;;;;;1.30;99.90;;;;;;4973147;28;19905;-86
2021/12/04 12:49:03;;;;;;;;;;;1.30;99.90;;;;;;4995206;28;19963;-86
2021/12/04 12:51:33;;;;;;;;;;;1.30;99.90;;;;;;4994920;28;20056;-85
2021/12/04 12:54:01;;;;;;;;;;;1.30;99.90;;;;;;4961324;28;19920;-89
2021/12/04 12:56:29;;;;;;;;;;;1.30;99.90;;;;;;4971873;28;20016;-85
2021/12/04 12:59:04;;;;;;;;;;;1.30;99.90;;;;;;4993344;28;19910;-87
2021/12/04 13:12:53;;;;;;;;;;;1.30;99.90;;;;;;5008944;28;20316;-86
2021/12/04 13:15:36;;;;;;;;;;;1.30;99.90;;;;;;4959810;28;19975;-86
2021/12/04 13:18:09;;;;;;;;;;;1.30;99.90;;;;;;4976939;28;19939;-86
2021/12/04 13:20:35;;;;;;;;;;;1.30;99.90;;;;;;4994496;28;19975;-86
2021/12/04 13:23:07;;;;;;;;;;;1.30;99.90;;;;;;4976268;28;20344;-86
2021/12/04 13:25:33;;;;;;;;;;;1.30;99.90;;;;;;4990858;28;19917;-86
2021/12/04 13:30:24;;;;;;;;;;;1.30;99.90;;;;;;5011014;28;20008;-86
2021/12/04 13:32:52;;;;;;;;;;;1.30;99.90;;;;;;4995449;28;20395;-87
2021/12/04 13:35:22;;;;;;;;;;;1.30;99.90;;;;;;4975308;28;19909;-88
2021/12/04 13:37:55;;;;;;;;;;;1.30;99.90;;;;;;4994409;28;19913;-86
2021/12/04 13:40:21;;;;;;;;;;;1.30;99.90;;;;;;4991528;28;19917;-87
2021/12/04 13:42:48;;;;;;;;;;;1.30;99.90;;;;;;4977717;28;19906;-86
2021/12/04 13:45:15;;;;;;;;;;;1.30;99.90;;;;;;4975766;28;19924;-87
2021/12/04 13:47:41;;;;;;;;;;;1.30;99.90;;;;;;4971001;28;20527;-87
2021/12/04 13:50:55;;;;;;;;;;;1.30;99.90;;;;;;4973375;28;19931;-87
2021/12/04 13:52:55;;;;;;;;;;;1.30;99.90;;;;;;4996865;28;19913;-87
2021/12/04 13:55:20;;;;;;;;;;;1.30;99.90;;;;;;4989470;28;19917;-87
2021/12/04 13:57:46;;;;;;;;;;;1.30;99.90;;;;;;4977087;28;20427;-86
2021/12/04 14:00:13;;;;;;;;;;;1.30;99.90;;;;;;4970000;28;19956;-87
2021/12/04 14:02:39;;;;;;;;;;;1.30;99.90;;;;;;4997045;28;20084;-89
2021/12/04 14:05:17;;;;;;;;;;;1.30;99.90;;;;;;4974766;28;19968;-89
2021/12/04 14:07:52;;;;;;;;;;;1.30;99.90;;;;;;4987619;28;19914;-87
2021/12/04 14:10:19;;;;;;;;;;;1.30;99.90;;;;;;4986273;28;19909;-87
2021/12/04 14:12:45;;;;;;;;;;;1.20;99.90;;;;;;4976948;28;20377;-87
2021/12/04 14:15:11;;;;;;;;;;;1.20;99.90;;;;;;4976005;28;19909;-87
2021/12/04 14:17:37;;;;;;;;;;;1.30;99.90;;;;;;4976811;28;19913;-87
2021/12/04 14:20:04;;;;;;;;;;;1.30;99.90;;;;;;4976294;28;19910;-87
2021/12/04 14:22:29;;;;;;;;;;;1.30;99.90;;;;;;4977336;28;19909;-87
2021/12/04 14:24:57;;;;;;;;;;;1.30;99.90;;;;;;4973640;28;20012;-87
2021/12/04 14:27:24;;;;;;;;;;;1.30;99.90;;;;;;4989186;28;19911;-87
2021/12/04 14:29:52;;;;;;;;;;;1.30;99.90;;;;;;4980290;28;20344;-87
2021/12/04 14:32:24;;;;;;;;;;;1.30;99.90;;;;;;4976775;28;20283;-87
2021/12/04 14:34:54;;;;;;;;;;;1.20;99.90;;;;;;4970604;28;20531;-87
2021/12/04 14:37:20;;;;;;;;;;;1.30;99.90;;;;;;4976512;28;20306;-88
2021/12/04 14:39:48;;;;;;;;;;;1.20;99.90;;;;;;4960531;28;19910;-87
2021/12/04 14:42:18;;;;;;;;;;;1.20;99.90;;;;;;4990242;28;19957;-87
2021/12/04 14:44:52;;;;;;;;;;;1.30;99.90;;;;;;4984672;28;19959;-87
2021/12/04 14:47:19;;;;;;;;;;;1.30;99.90;;;;;;4991769;28;19963;-87
2021/12/04 14:49:45;;;;;;;;;;;1.30;99.90;;;;;;4972657;28;19913;-87
2021/12/04 14:52:21;;;;;;;;;;;1.30;99.90;;;;;;4976722;28;20379;-87
2021/12/04 14:54:47;;;;;;;;;;;1.30;99.90;;;;;;4976039;28;19965;-87
2021/12/04 14:57:18;;;;;;;;;;;1.30;99.90;;;;;;4968973;28;20344;-87
2021/12/04 14:59:44;;;;;;;;;;;1.30;99.90;;;;;;4992627;28;20295;-87
2021/12/04 15:02:20;;;;;;;;;;;1.30;99.90;;;;;;4960318;28;19914;-87
2021/12/04 15:04:45;;;;;;;;;;;1.30;99.90;;;;;;4982543;28;19914;-89
2021/12/04 15:07:22;;;;;;;;;;;1.30;99.90;;;;;;4971451;28;19910;-88
2021/12/04 15:09:48;;;;;;;;;;;1.30;99.90;;;;;;4989735;28;19909;-87
2021/12/04 15:12:33;;;;;;;;;;;1.30;99.90;;;;;;4976340;28;19916;-87
2021/12/04 15:15:09;;;;;;;;;;;1.30;99.90;;;;;;4972942;28;19910;-87
2021/12/04 15:17:35;;;;;;;;;;;1.30;99.90;;;;;;4979619;28;20043;-87
2021/12/04 15:20:03;;;;;;;;;;;1.30;99.90;;;;;;4976110;28;20622;-87
2021/12/04 15:22:35;;;;;;;;;;;1.20;99.90;;;;;;4975051;28;19910;-87
2021/12/04 15:25:09;;;;;;;;;;;1.20;99.90;;;;;;4972810;28;20671;-88
2021/12/04 15:27:34;;;;;;;;;;;1.20;99.90;;;;;;4973811;28;19937;-87
2021/12/04 15:30:04;;;;;;;;;;;1.20;99.90;;;;;;4994248;28;19909;-88
2021/12/04 15:32:30;;;;;;;;;;;1.20;99.90;;;;;;4975966;28;20275;-88
2021/12/04 15:35:06;;;;;;;;;;;1.30;99.90;;;;;;4988911;28;19906;-88
2021/12/04 15:37:38;;;;;;;;;;;1.30;99.90;;;;;;4992504;28;20514;-88
2021/12/04 15:40:05;;;;;;;;;;;1.20;99.90;;;;;;4975481;28;19910;-88
2021/12/04 15:42:42;;;;;;;;;;;1.30;99.90;;;;;;4992223;28;19906;-91
2021/12/04 15:45:22;;;;;;;;;;;1.30;99.90;;;;;;4973389;28;20040;-91
2021/12/04 15:48:32;;;;;;;;;;;1.30;99.90;;;;;;4994178;28;19916;-88
2021/12/04 15:51:03;;;;;;;;;;;1.30;99.90;;;;;;4993826;28;19916;-88
2021/12/04 15:53:29;;;;;;;;;;;1.30;99.90;;;;;;4991317;28;19910;-88
2021/12/04 15:55:56;;;;;;;;;;;1.30;99.90;;;;;;4992535;28;19920;-88
2021/12/04 15:58:24;;;;;;;;;;;1.30;99.90;;;;;;4978658;28;20407;-88
2021/12/04 16:00:54;;;;;;;;;;;1.30;99.90;;;;;;4977130;28;20014;-89
2021/12/04 16:03:21;;;;;;;;;;;1.30;99.90;;;;;;4978728;28;19920;-88
2021/12/04 16:05:49;;;;;;;;;;;1.20;99.90;;;;;;4976813;28;20002;-88
2021/12/04 16:08:17;;;;;;;;;;;1.30;99.90;;;;;;4978717;28;19913;-88
2021/12/04 16:10:44;;;;;;;;;;;1.30;99.90;;;;;;4978807;28;20383;-87
2021/12/04 16:13:11;;;;;;;;;;;1.30;99.90;;;;;;4976615;28;19960;-87
2021/12/04 16:15:36;;;;;;;;;;;1.30;99.90;;;;;;4970313;28;19909;-88
2021/12/04 16:18:02;;;;;;;;;;;1.30;99.90;;;;;;4978827;28;19933;-87
2021/12/04 16:20:30;;;;;;;;;;;1.20;99.90;;;;;;4978656;28;19913;-88
2021/12/04 16:22:58;;;;;;;;;;;1.20;99.90;;;;;;4976570;28;19916;-88
2021/12/04 16:25:42;;;;;;;;;;;1.20;99.90;;;;;;4975582;28;19921;-88
2021/12/04 16:30:48;;;;;;;;;;;1.30;99.90;;;;;;5014134;28;19910;-87
2021/12/04 16:38:28;;;;;;;;;;;1.30;99.90;;;;;;5001103;28;20585;-88
2021/12/04 16:40:54;;;;;;;;;;;1.30;99.90;;;;;;4994612;28;19909;-90
2021/12/04 16:43:30;;;;;;;;;;;1.30;99.90;;;;;;4978994;28;19945;-87
2021/12/04 16:45:59;;;;;;;;;;;1.30;99.90;;;;;;4974309;28;19964;-88
2021/12/04 16:48:28;;;;;;;;;;;1.30;99.90;;;;;;4965423;28;19952;-86
2021/12/04 16:59:04;;;;;;;;;;;1.30;99.90;;;;;;4990501;28;19906;-86
2021/12/04 17:01:30;;;;;;;;;;;1.30;99.90;;;;;;4993498;28;20275;-86
2021/12/04 17:03:56;;;;;;;;;;;1.20;99.90;;;;;;4975500;28;20008;-86
2021/12/04 17:06:21;;;;;;;;;;;1.20;99.90;;;;;;4974246;28;20381;-85
2021/12/04 17:08:48;;;;;;;;;;;1.30;99.90;;;;;;4978484;28;20319;-88
2021/12/04 17:11:14;;;;;;;;;;;1.20;99.90;;;;;;4977474;28;19913;-87
2021/12/04 17:13:39;;;;;;;;;;;1.20;99.90;;;;;;4974924;28;19910;-86
2021/12/04 17:16:05;;;;;;;;;;;1.20;99.90;;;;;;4968760;28;19996;-86
2021/12/04 17:18:36;;;;;;;;;;;1.30;99.90;;;;;;4973305;28;19919;-87
2021/12/04 17:21:02;;;;;;;;;;;1.30;99.90;;;;;;4977240;28;19917;-86
2021/12/04 17:23:28;;;;;;;;;;;1.30;99.90;;;;;;4974716;28;20013;-87
2021/12/04 17:25:54;;;;;;;;;;;1.20;99.90;;;;;;4989028;28;19996;-87
2021/12/04 17:28:22;;;;;;;;;;;1.20;99.90;;;;;;4988563;28;19916;-88
2021/12/04 17:30:49;;;;;;;;;;;1.30;99.90;;;;;;4977742;28;19959;-87
2021/12/04 17:33:14;;;;;;;;;;;1.20;99.90;;;;;;4976824;28;19956;-86
2021/12/04 17:35:40;;;;;;;;;;;1.30;99.90;;;;;;4995597;28;19960;-88
2021/12/04 17:38:06;;;;;;;;;;;1.40;99.90;;;;;;4992970;28;19913;-87
2021/12/04 17:40:34;;;;;;;;;;;1.40;99.90;;;;;;4996544;28;19997;-87
2021/12/04 17:43:00;;;;;;;;;;;1.50;99.90;;;;;;4977553;28;19909;-87
2021/12/04 17:45:26;;;;;;;;;;;1.50;99.90;;;;;;4990046;28;20663;-86
2021/12/04 17:47:51;;;;;;;;;;;1.50;99.90;;;;;;4977349;28;19913;-88
2021/12/04 17:50:27;;;;;;;;;;;1.50;99.90;;;;;;4983762;28;20007;-87
2021/12/04 17:52:54;;;;;;;;;;;1.50;99.90;;;;;;4977515;28;19920;-87
2021/12/04 17:55:21;;;;;;;;;;;1.50;99.90;;;;;;4991968;28;19909;-86
2021/12/04 17:57:47;;;;;;;;;;;1.50;99.90;;;;;;4996385;28;19913;-87